sensor_id;sensor_type;location;lat;lon;timestamp;pressure;altitude;pressure_sealevel;temperature;humidity
48630;BME280;34426;52.180;4.462;2023-04-08T00:00:57;102418.63;;;8.42;91.77
48630;BME280;34426;52.180;4.462;2023-04-08T00:03:24;102416.94;;;8.41;91.62
48630;BME280;34426;52.180;4.462;2023-04-08T00:05:52;102421.22;;;8.37;91.31
48630;BME280;34426;52.180;4.462;2023-04-08T00:08:19;102425.28;;;8.34;91.96
48630;BME280;34426;52.180;4.462;2023-04-08T00:10:46;102422.88;;;8.31;92.03
48630;BME280;34426;52.180;4.462;2023-04-08T00:13:16;102418.84;;;8.34;92.20
48630;BME280;34426;52.180;4.462;2023-04-08T00:15:44;102428.06;;;8.34;92.39
48630;BME280;34426;52.180;4.462;2023-04-08T00:18:12;102418.38;;;8.30;92.71
48630;BME280;34426;52.180;4.462;2023-04-08T00:20:40;102419.03;;;8.26;92.45
48630;BME280;34426;52.180;4.462;2023-04-08T00:23:07;102416.91;;;8.21;93.23
48630;BME280;34426;52.180;4.462;2023-04-08T00:25:35;102421.81;;;8.26;93.33
48630;BME280;34426;52.180;4.462;2023-04-08T00:28:02;102421.16;;;8.24;92.82
48630;BME280;34426;52.180;4.462;2023-04-08T00:30:32;102423.34;;;8.22;93.41
48630;BME280;34426;52.180;4.462;2023-04-08T00:32:59;102421.63;;;8.21;93.10
48630;BME280;34426;52.180;4.462;2023-04-08T00:35:27;102422.06;;;8.18;93.59
48630;BME280;34426;52.180;4.462;2023-04-08T00:37:55;102423.34;;;8.22;93.96
48630;BME280;34426;52.180;4.462;2023-04-08T00:40:22;102419.25;;;8.31;93.69
48630;BME280;34426;52.180;4.462;2023-04-08T00:42:50;102430.63;;;8.29;93.84
48630;BME280;34426;52.180;4.462;2023-04-08T00:45:18;102424.59;;;8.26;93.60
48630;BME280;34426;52.180;4.462;2023-04-08T00:47:47;102429.31;;;8.25;93.31
48630;BME280;34426;52.180;4.462;2023-04-08T00:50:14;102432.09;;;8.25;93.49
48630;BME280;34426;52.180;4.462;2023-04-08T00:52:42;102429.13;;;8.20;93.69
48630;BME280;34426;52.180;4.462;2023-04-08T00:55:10;102439.63;;;8.18;93.87
48630;BME280;34426;52.180;4.462;2023-04-08T00:57:38;102431.72;;;8.22;93.88
48630;BME280;34426;52.180;4.462;2023-04-08T01:00:06;102422.03;;;8.24;93.91
48630;BME280;34426;52.180;4.462;2023-04-08T01:02:40;102430.63;;;8.23;94.18
48630;BME280;34426;52.180;4.462;2023-04-08T01:05:14;102429.09;;;8.27;93.91
48630;BME280;34426;52.180;4.462;2023-04-08T01:07:46;102429.31;;;8.32;93.86
48630;BME280;34426;52.180;4.462;2023-04-08T01:10:18;102429.75;;;8.29;93.45
48630;BME280;34426;52.180;4.462;2023-04-08T01:12:52;102428.69;;;8.30;94.27
48630;BME280;34426;52.180;4.462;2023-04-08T01:15:21;102425.88;;;8.23;94.11
48630;BME280;34426;52.180;4.462;2023-04-08T01:17:52;102427.19;;;8.21;93.68
48630;BME280;34426;52.180;4.462;2023-04-08T01:20:24;102433.19;;;8.24;94.65
48630;BME280;34426;52.180;4.462;2023-04-08T01:23:01;102434.91;;;8.19;94.50
48630;BME280;34426;52.180;4.462;2023-04-08T01:25:32;102435.34;;;8.22;94.45
48630;BME280;34426;52.180;4.462;2023-04-08T01:28:06;102443.94;;;8.21;94.11
48630;BME280;34426;52.180;4.462;2023-04-08T01:30:34;102430.63;;;8.23;94.51
48630;BME280;34426;52.180;4.462;2023-04-08T01:33:02;102424.84;;;8.18;94.15
48630;BME280;34426;52.180;4.462;2023-04-08T01:35:31;102426.34;;;8.20;94.54
48630;BME280;34426;52.180;4.462;2023-04-08T01:38:00;102430.00;;;8.21;94.55
48630;BME280;34426;52.180;4.462;2023-04-08T01:40:29;102425.91;;;8.17;94.29
48630;BME280;34426;52.180;4.462;2023-04-08T01:43:00;102432.78;;;8.21;94.49
48630;BME280;34426;52.180;4.462;2023-04-08T01:45:30;102434.91;;;8.19;94.60
48630;BME280;34426;52.180;4.462;2023-04-08T01:47:58;102438.78;;;8.11;94.85
48630;BME280;34426;52.180;4.462;2023-04-08T01:50:27;102432.97;;;8.13;94.75
48630;BME280;34426;52.180;4.462;2023-04-08T01:52:56;102437.91;;;8.11;95.17
48630;BME280;34426;52.180;4.462;2023-04-08T01:55:25;102446.72;;;8.14;95.04
48630;BME280;34426;52.180;4.462;2023-04-08T01:57:54;102440.91;;;8.02;94.20
48630;BME280;34426;52.180;4.462;2023-04-08T02:00:27;102440.44;;;7.92;94.67
48630;BME280;34426;52.180;4.462;2023-04-08T02:02:55;102442.78;;;7.82;94.54
48630;BME280;34426;52.180;4.462;2023-04-08T02:05:23;102441.94;;;7.75;94.96
48630;BME280;34426;52.180;4.462;2023-04-08T02:07:51;102442.75;;;7.62;94.57
48630;BME280;34426;52.180;4.462;2023-04-08T02:10:18;102435.25;;;7.63;94.85
48630;BME280;34426;52.180;4.462;2023-04-08T02:12:46;102438.22;;;7.55;94.92
48630;BME280;34426;52.180;4.462;2023-04-08T02:15:14;102438.22;;;7.55;95.72
48630;BME280;34426;52.180;4.462;2023-04-08T02:17:46;102438.22;;;7.55;95.72
48630;BME280;34426;52.180;4.462;2023-04-08T02:20:17;102440.78;;;7.56;95.42
48630;BME280;34426;52.180;4.462;2023-04-08T02:22:49;102440.38;;;7.59;96.02
48630;BME280;34426;52.180;4.462;2023-04-08T02:25:24;102443.19;;;7.66;95.49
48630;BME280;34426;52.180;4.462;2023-04-08T02:27:52;102445.56;;;7.69;95.84
48630;BME280;34426;52.180;4.462;2023-04-08T02:30:21;102446.22;;;7.71;95.79
48630;BME280;34426;52.180;4.462;2023-04-08T02:32:53;102452.88;;;7.77;95.73
48630;BME280;34426;52.180;4.462;2023-04-08T02:35:23;102449.88;;;7.78;95.31
48630;BME280;34426;52.180;4.462;2023-04-08T02:37:51;102447.69;;;7.80;95.80
48630;BME280;34426;52.180;4.462;2023-04-08T02:40:26;102446.00;;;7.79;95.27
48630;BME280;34426;52.180;4.462;2023-04-08T02:42:55;102451.13;;;7.82;95.61
48630;BME280;34426;52.180;4.462;2023-04-08T02:45:24;102448.16;;;7.77;95.41
48630;BME280;34426;52.180;4.462;2023-04-08T02:47:55;102449.22;;;7.76;95.35
48630;BME280;34426;52.180;4.462;2023-04-08T02:50:23;102452.22;;;7.75;95.79
48630;BME280;34426;52.180;4.462;2023-04-08T02:52:51;102459.28;;;7.77;95.93
48630;BME280;34426;52.180;4.462;2023-04-08T02:55:17;102454.13;;;7.74;95.32
48630;BME280;34426;52.180;4.462;2023-04-08T02:57:47;102459.50;;;7.82;95.56
48630;BME280;34426;52.180;4.462;2023-04-08T03:00:15;102458.00;;;7.73;95.85
48630;BME280;34426;52.180;4.462;2023-04-08T03:02:43;102469.56;;;7.70;95.49
48630;BME280;34426;52.180;4.462;2023-04-08T03:05:12;102468.25;;;7.66;95.79
48630;BME280;34426;52.180;4.462;2023-04-08T03:07:39;102468.03;;;7.67;95.67
48630;BME280;34426;52.180;4.462;2023-04-08T03:10:08;102471.44;;;7.63;95.63
48630;BME280;34426;52.180;4.462;2023-04-08T03:12:35;102471.22;;;7.58;95.86
48630;BME280;34426;52.180;4.462;2023-04-08T03:15:03;102473.53;;;7.48;95.88
48630;BME280;34426;52.180;4.462;2023-04-08T03:17:30;102466.66;;;7.44;96.13
48630;BME280;34426;52.180;4.462;2023-04-08T03:19:58;102464.72;;;7.44;95.62
48630;BME280;34426;52.180;4.462;2023-04-08T03:22:30;102462.56;;;7.40;95.74
48630;BME280;34426;52.180;4.462;2023-04-08T03:24:57;102473.69;;;7.33;96.05
48630;BME280;34426;52.180;4.462;2023-04-08T03:27:25;102469.00;;;7.33;95.95
48630;BME280;34426;52.180;4.462;2023-04-08T03:29:53;102471.13;;;7.38;95.70
48630;BME280;34426;52.180;4.462;2023-04-08T03:32:20;102470.47;;;7.29;95.88
48630;BME280;34426;52.180;4.462;2023-04-08T03:34:47;102471.13;;;7.31;95.67
48630;BME280;34426;52.180;4.462;2023-04-08T03:37:14;102474.06;;;7.23;95.94
48630;BME280;34426;52.180;4.462;2023-04-08T03:39:44;102478.31;;;7.19;96.08
48630;BME280;34426;52.180;4.462;2023-04-08T03:42:11;102478.53;;;7.18;96.20
48630;BME280;34426;52.180;4.462;2023-04-08T03:44:39;102475.09;;;7.16;96.01
48630;BME280;34426;52.180;4.462;2023-04-08T03:47:05;102479.97;;;7.07;95.59
48630;BME280;34426;52.180;4.462;2023-04-08T03:49:33;102485.88;;;6.91;96.11
48630;BME280;34426;52.180;4.462;2023-04-08T03:52:00;102492.91;;;6.87;96.05
48630;BME280;34426;52.180;4.462;2023-04-08T03:54:27;102492.00;;;6.80;96.04
48630;BME280;34426;52.180;4.462;2023-04-08T03:56:57;102497.50;;;6.73;95.81
48630;BME280;34426;52.180;4.462;2023-04-08T03:59:24;102503.66;;;6.68;95.94
48630;BME280;34426;52.180;4.462;2023-04-08T04:01:51;102495.47;;;6.60;96.12
48630;BME280;34426;52.180;4.462;2023-04-08T04:04:19;102494.56;;;6.53;96.26
48630;BME280;34426;52.180;4.462;2023-04-08T04:06:47;102499.44;;;6.51;95.84
48630;BME280;34426;52.180;4.462;2023-04-08T04:09:14;102499.63;;;6.43;96.09
48630;BME280;34426;52.180;4.462;2023-04-08T04:11:41;102502.66;;;6.48;96.18
48630;BME280;34426;52.180;4.462;2023-04-08T04:14:10;102512.00;;;6.41;95.94
48630;BME280;34426;52.180;4.462;2023-04-08T04:16:38;102509.22;;;6.41;96.23
48630;BME280;34426;52.180;4.462;2023-04-08T04:19:05;102510.28;;;6.40;96.39
48630;BME280;34426;52.180;4.462;2023-04-08T04:21:33;102501.88;;;6.33;95.91
48630;BME280;34426;52.180;4.462;2023-04-08T04:24:00;102514.44;;;6.29;96.04
48630;BME280;34426;52.180;4.462;2023-04-08T04:26:28;102513.97;;;6.25;96.27
48630;BME280;34426;52.180;4.462;2023-04-08T04:28:56;102519.47;;;6.19;95.93
48630;BME280;34426;52.180;4.462;2023-04-08T04:31:25;102519.47;;;6.19;96.26
48630;BME280;34426;52.180;4.462;2023-04-08T04:33:53;102523.81;;;6.07;96.26
48630;BME280;34426;52.180;4.462;2023-04-08T04:36:20;102527.94;;;6.11;95.99
48630;BME280;34426;52.180;4.462;2023-04-08T04:38:49;102530.03;;;6.09;95.96
48630;BME280;34426;52.180;4.462;2023-04-08T04:41:16;102519.47;;;5.97;95.99
48630;BME280;34426;52.180;4.462;2023-04-08T04:43:44;102536.81;;;5.99;96.52
48630;BME280;34426;52.180;4.462;2023-04-08T04:46:11;102531.53;;;6.05;96.35
48630;BME280;34426;52.180;4.462;2023-04-08T04:48:41;102530.72;;;6.11;96.91
48630;BME280;34426;52.180;4.462;2023-04-08T04:51:08;102536.94;;;6.13;97.01
48630;BME280;34426;52.180;4.462;2023-04-08T04:53:36;102539.97;;;6.18;97.08
48630;BME280;34426;52.180;4.462;2023-04-08T04:56:03;102538.00;;;6.33;96.46
48630;BME280;34426;52.180;4.462;2023-04-08T04:58:31;102541.97;;;6.45;96.45
48630;BME280;34426;52.180;4.462;2023-04-08T05:00:58;102542.38;;;6.42;96.35
48630;BME280;34426;52.180;4.462;2023-04-08T05:03:25;102550.97;;;6.47;96.38
48630;BME280;34426;52.180;4.462;2023-04-08T05:05:55;102550.16;;;6.53;96.20
48630;BME280;34426;52.180;4.462;2023-04-08T05:08:22;102553.19;;;6.58;96.01
48630;BME280;34426;52.180;4.462;2023-04-08T05:10:50;102555.69;;;6.47;96.51
48630;BME280;34426;52.180;4.462;2023-04-08T05:13:17;102555.28;;;6.50;96.47
48630;BME280;34426;52.180;4.462;2023-04-08T05:15:45;102554.81;;;6.46;96.10
48630;BME280;34426;52.180;4.462;2023-04-08T05:18:12;102559.97;;;6.49;96.25
48630;BME280;34426;52.180;4.462;2023-04-08T05:20:40;102562.53;;;6.51;96.51
48630;BME280;34426;52.180;4.462;2023-04-08T05:23:09;102554.81;;;6.46;96.13
48630;BME280;34426;52.180;4.462;2023-04-08T05:25:37;102561.66;;;6.50;96.62
48630;BME280;34426;52.180;4.462;2023-04-08T05:28:04;102560.41;;;6.53;96.45
48630;BME280;34426;52.180;4.462;2023-04-08T05:30:34;102565.09;;;6.52;96.42
48630;BME280;34426;52.180;4.462;2023-04-08T05:33:02;102559.41;;;6.60;96.83
48630;BME280;34426;52.180;4.462;2023-04-08T05:35:29;102568.09;;;6.51;96.16
48630;BME280;34426;52.180;4.462;2023-04-08T05:37:57;102568.16;;;6.57;96.20
48630;BME280;34426;52.180;4.462;2023-04-08T05:40:26;102572.09;;;6.42;95.74
48630;BME280;34426;52.180;4.462;2023-04-08T05:42:53;102576.91;;;6.33;95.75
48630;BME280;34426;52.180;4.462;2023-04-08T05:45:20;102582.06;;;6.36;96.12
48630;BME280;34426;52.180;4.462;2023-04-08T05:47:48;102592.13;;;6.37;96.57
48630;BME280;34426;52.180;4.462;2023-04-08T05:50:15;102589.03;;;6.47;96.51
48630;BME280;34426;52.180;4.462;2023-04-08T05:52:43;102588.00;;;6.54;95.72
48630;BME280;34426;52.180;4.462;2023-04-08T05:55:14;102601.13;;;6.60;95.75
48630;BME280;34426;52.180;4.462;2023-04-08T05:57:43;102597.69;;;6.58;95.24
48630;BME280;34426;52.180;4.462;2023-04-08T06:00:10;102595.16;;;6.63;95.48
48630;BME280;34426;52.180;4.462;2023-04-08T06:02:38;102604.44;;;6.71;95.19
48630;BME280;34426;52.180;4.462;2023-04-08T06:05:06;102607.22;;;6.71;94.88
48630;BME280;34426;52.180;4.462;2023-04-08T06:07:33;102610.19;;;6.69;94.67
48630;BME280;34426;52.180;4.462;2023-04-08T06:10:00;102608.00;;;6.64;94.79
48630;BME280;34426;52.180;4.462;2023-04-08T06:12:28;102617.00;;;6.66;94.51
48630;BME280;34426;52.180;4.462;2023-04-08T06:14:57;102608.41;;;6.61;95.01
48630;BME280;34426;52.180;4.462;2023-04-08T06:17:24;102612.91;;;6.62;94.61
48630;BME280;34426;52.180;4.462;2023-04-08T06:19:54;102621.56;;;6.74;94.28
48630;BME280;34426;52.180;4.462;2023-04-08T06:22:21;102617.13;;;6.80;94.18
48630;BME280;34426;52.180;4.462;2023-04-08T06:24:48;102618.47;;;6.84;94.22
48630;BME280;34426;52.180;4.462;2023-04-08T06:27:16;102620.66;;;6.88;93.88
48630;BME280;34426;52.180;4.462;2023-04-08T06:29:43;102627.06;;;6.89;93.91
48630;BME280;34426;52.180;4.462;2023-04-08T06:32:12;102621.50;;;6.89;93.97
48630;BME280;34426;52.180;4.462;2023-04-08T06:34:39;102624.94;;;6.91;93.90
48630;BME280;34426;52.180;4.462;2023-04-08T06:37:07;102632.47;;;6.97;94.07
48630;BME280;34426;52.180;4.462;2023-04-08T06:39:34;102636.94;;;6.91;93.66
48630;BME280;34426;52.180;4.462;2023-04-08T06:42:02;102624.78;;;6.99;94.02
48630;BME280;34426;52.180;4.462;2023-04-08T06:44:29;102637.03;;;7.05;93.72
48630;BME280;34426;52.180;4.462;2023-04-08T06:46:57;102639.59;;;7.06;93.46
48630;BME280;34426;52.180;4.462;2023-04-08T06:49:28;102645.19;;;7.06;93.72
48630;BME280;34426;52.180;4.462;2023-04-08T06:51:59;102649.94;;;7.12;94.15
48630;BME280;34426;52.180;4.462;2023-04-08T06:54:26;102649.13;;;7.18;93.11
48630;BME280;34426;52.180;4.462;2023-04-08T06:56:53;102651.97;;;7.25;93.52
48630;BME280;34426;52.180;4.462;2023-04-08T06:59:21;102651.25;;;7.16;92.31
48630;BME280;34426;52.180;4.462;2023-04-08T07:01:48;102665.13;;;7.10;93.63
48630;BME280;34426;52.180;4.462;2023-04-08T07:04:16;102665.19;;;7.16;92.65
48630;BME280;34426;52.180;4.462;2023-04-08T07:06:45;102671.13;;;7.13;92.12
48630;BME280;34426;52.180;4.462;2023-04-08T07:09:16;102674.59;;;7.15;91.84
48630;BME280;34426;52.180;4.462;2023-04-08T07:11:43;102681.06;;;7.22;92.67
48630;BME280;34426;52.180;4.462;2023-04-08T07:14:11;102682.13;;;7.21;91.56
48630;BME280;34426;52.180;4.462;2023-04-08T07:16:39;102681.88;;;7.16;91.67
48630;BME280;34426;52.180;4.462;2023-04-08T07:19:06;102687.84;;;7.13;90.22
48630;BME280;34426;52.180;4.462;2023-04-08T07:21:34;102691.81;;;7.04;90.90
48630;BME280;34426;52.180;4.462;2023-04-08T07:24:04;102690.63;;;7.13;90.77
48630;BME280;34426;52.180;4.462;2023-04-08T07:26:31;102693.66;;;7.18;91.21
48630;BME280;34426;52.180;4.462;2023-04-08T07:28:58;102690.16;;;7.38;90.75
48630;BME280;34426;52.180;4.462;2023-04-08T07:31:26;102690.06;;;7.52;90.90
48630;BME280;34426;52.180;4.462;2023-04-08T07:33:53;102697.41;;;7.60;90.31
48630;BME280;34426;52.180;4.462;2023-04-08T07:36:24;102694.88;;;7.65;90.35
48630;BME280;34426;52.180;4.462;2023-04-08T07:38:51;102691.28;;;7.71;90.00
48630;BME280;34426;52.180;4.462;2023-04-08T07:41:21;102694.03;;;7.64;89.52
48630;BME280;34426;52.180;4.462;2023-04-08T07:43:48;102700.56;;;7.85;90.53
48630;BME280;34426;52.180;4.462;2023-04-08T07:46:15;102694.63;;;7.94;89.00
48630;BME280;34426;52.180;4.462;2023-04-08T07:48:42;102700.88;;;7.96;88.63
48630;BME280;34426;52.180;4.462;2023-04-08T07:51:10;102701.97;;;8.02;89.56
48630;BME280;34426;52.180;4.462;2023-04-08T07:53:38;102701.03;;;7.88;88.24
48630;BME280;34426;52.180;4.462;2023-04-08T07:56:11;102695.91;;;7.92;87.74
48630;BME280;34426;52.180;4.462;2023-04-08T07:58:42;102701.47;;;7.92;86.94
48630;BME280;34426;52.180;4.462;2023-04-08T08:01:17;102704.88;;;7.87;88.07
48630;BME280;34426;52.180;4.462;2023-04-08T08:03:45;102706.59;;;7.88;87.84
48630;BME280;34426;52.180;4.462;2023-04-08T08:06:13;102707.25;;;7.90;88.33
48630;BME280;34426;52.180;4.462;2023-04-08T08:08:41;102708.84;;;8.06;88.82
48630;BME280;34426;52.180;4.462;2023-04-08T08:11:08;102711.94;;;8.18;88.69
48630;BME280;34426;52.180;4.462;2023-04-08T08:13:36;102713.25;;;8.22;87.66
48630;BME280;34426;52.180;4.462;2023-04-08T08:16:05;102715.16;;;8.28;86.70
48630;BME280;34426;52.180;4.462;2023-04-08T08:18:36;102711.50;;;8.21;87.36
48630;BME280;34426;52.180;4.462;2023-04-08T08:21:03;102717.91;;;8.15;87.47
48630;BME280;34426;52.180;4.462;2023-04-08T08:23:31;102723.91;;;8.12;87.43
48630;BME280;34426;52.180;4.462;2023-04-08T08:26:01;102721.94;;;8.06;87.83
48630;BME280;34426;52.180;4.462;2023-04-08T08:28:32;102720.38;;;7.96;88.12
48630;BME280;34426;52.180;4.462;2023-04-08T08:31:00;102727.00;;;7.95;88.13
48630;BME280;34426;52.180;4.462;2023-04-08T08:33:29;102731.91;;;7.93;88.93
48630;BME280;34426;52.180;4.462;2023-04-08T08:35:56;102731.47;;;7.90;87.81
48630;BME280;34426;52.180;4.462;2023-04-08T08:38:24;102736.44;;;7.94;88.21
48630;BME280;34426;52.180;4.462;2023-04-08T08:40:54;102731.91;;;7.93;87.81
48630;BME280;34426;52.180;4.462;2023-04-08T08:43:22;102741.75;;;7.89;87.33
48630;BME280;34426;52.180;4.462;2023-04-08T08:45:50;102740.53;;;7.98;88.32
48630;BME280;34426;52.180;4.462;2023-04-08T08:48:18;102737.38;;;8.08;87.85
48630;BME280;34426;52.180;4.462;2023-04-08T08:50:47;102745.34;;;8.11;88.36
48630;BME280;34426;52.180;4.462;2023-04-08T08:53:15;102748.38;;;8.16;87.09
48630;BME280;34426;52.180;4.462;2023-04-08T08:55:43;102735.09;;;8.25;86.66
48630;BME280;34426;52.180;4.462;2023-04-08T08:58:10;102735.09;;;8.25;86.91
48630;BME280;34426;52.180;4.462;2023-04-08T09:00:38;102739.00;;;8.30;86.71
48630;BME280;34426;52.180;4.462;2023-04-08T09:03:15;102732.25;;;8.46;86.31
48630;BME280;34426;52.180;4.462;2023-04-08T09:05:52;102737.41;;;8.49;86.12
48630;BME280;34426;52.180;4.462;2023-04-08T09:08:30;102735.94;;;8.60;86.00
48630;BME280;34426;52.180;4.462;2023-04-08T09:11:12;102730.59;;;8.72;86.05
48630;BME280;34426;52.180;4.462;2023-04-08T09:13:39;102726.56;;;8.81;85.58
48630;BME280;34426;52.180;4.462;2023-04-08T09:16:08;102722.94;;;8.87;84.87
48630;BME280;34426;52.180;4.462;2023-04-08T09:18:37;102733.03;;;8.94;84.91
48630;BME280;34426;52.180;4.462;2023-04-08T09:21:07;102730.91;;;9.03;84.22
48630;BME280;34426;52.180;4.462;2023-04-08T09:23:41;102731.34;;;9.13;83.36
48630;BME280;34426;52.180;4.462;2023-04-08T09:26:10;102744.03;;;9.22;82.34
48630;BME280;34426;52.180;4.462;2023-04-08T09:28:38;102742.31;;;9.34;82.49
48630;BME280;34426;52.180;4.462;2023-04-08T09:31:19;102741.06;;;9.50;81.69
48630;BME280;34426;52.180;4.462;2023-04-08T09:33:47;102740.59;;;9.60;80.60
48630;BME280;34426;52.180;4.462;2023-04-08T09:36:16;102745.31;;;9.79;80.17
48630;BME280;34426;52.180;4.462;2023-04-08T09:38:44;102751.28;;;10.02;76.59
48630;BME280;34426;52.180;4.462;2023-04-08T09:41:13;102747.63;;;10.09;76.37
48630;BME280;34426;52.180;4.462;2023-04-08T09:43:42;102744.59;;;10.17;77.49
48630;BME280;34426;52.180;4.462;2023-04-08T09:46:11;102743.09;;;10.34;75.84
48630;BME280;34426;52.180;4.462;2023-04-08T09:48:41;102737.00;;;10.44;74.93
48630;BME280;34426;52.180;4.462;2023-04-08T09:51:17;102738.69;;;10.51;74.85
48630;BME280;34426;52.180;4.462;2023-04-08T09:53:47;102740.16;;;10.67;75.42
48630;BME280;34426;52.180;4.462;2023-04-08T09:56:17;102733.34;;;10.88;75.13
48630;BME280;34426;52.180;4.462;2023-04-08T09:58:50;102732.19;;;11.02;73.38
48630;BME280;34426;52.180;4.462;2023-04-08T10:01:25;102740.09;;;11.12;73.38
48630;BME280;34426;52.180;4.462;2023-04-08T10:03:55;102734.34;;;11.31;71.54
48630;BME280;34426;52.180;4.462;2023-04-08T10:06:27;102745.50;;;11.38;72.65
48630;BME280;34426;52.180;4.462;2023-04-08T10:08:58;102738.94;;;11.51;71.59
48630;BME280;34426;52.180;4.462;2023-04-08T10:11:28;102735.81;;;11.65;72.02
48630;BME280;34426;52.180;4.462;2023-04-08T10:13:56;102738.72;;;11.77;70.83
48630;BME280;34426;52.180;4.462;2023-04-08T10:16:24;102735.63;;;11.85;70.66
48630;BME280;34426;52.180;4.462;2023-04-08T10:18:52;102734.88;;;11.96;69.69
48630;BME280;34426;52.180;4.462;2023-04-08T10:21:36;102732.72;;;12.17;67.64
48630;BME280;34426;52.180;4.462;2023-04-08T10:24:07;102738.47;;;12.22;68.26
48630;BME280;34426;52.180;4.462;2023-04-08T10:26:36;102729.28;;;12.33;67.01
48630;BME280;34426;52.180;4.462;2023-04-08T10:32:27;102727.66;;;12.44;66.18
48630;BME280;34426;52.180;4.462;2023-04-08T10:34:54;102733.94;;;12.57;67.99
48630;BME280;34426;52.180;4.462;2023-04-08T10:37:27;102729.72;;;12.66;65.89
48630;BME280;34426;52.180;4.462;2023-04-08T10:39:55;102726.22;;;12.71;63.12
48630;BME280;34426;52.180;4.462;2023-04-08T10:42:30;102723.78;;;12.75;65.30
48630;BME280;34426;52.180;4.462;2023-04-08T10:45:01;102735.31;;;12.85;64.92
48630;BME280;34426;52.180;4.462;2023-04-08T10:47:28;102727.50;;;12.87;64.48
48630;BME280;34426;52.180;4.462;2023-04-08T10:49:56;102734.75;;;12.94;63.28
48630;BME280;34426;52.180;4.462;2023-04-08T10:52:25;102731.25;;;12.99;63.45
48630;BME280;34426;52.180;4.462;2023-04-08T10:54:53;102727.31;;;13.00;59.93
48630;BME280;34426;52.180;4.462;2023-04-08T10:57:24;102718.44;;;13.15;59.38
48630;BME280;34426;52.180;4.462;2023-04-08T10:59:54;102720.81;;;13.18;60.92
48630;BME280;34426;52.180;4.462;2023-04-08T11:02:22;102722.19;;;13.27;58.38
48630;BME280;34426;52.180;4.462;2023-04-08T11:04:58;102723.31;;;13.38;57.18
48630;BME280;34426;52.180;4.462;2023-04-08T11:07:27;102717.44;;;13.51;56.81
48630;BME280;34426;52.180;4.462;2023-04-08T11:09:55;102710.72;;;13.52;57.71
48630;BME280;34426;52.180;4.462;2023-04-08T11:12:23;102718.44;;;13.56;58.23
48630;BME280;34426;52.180;4.462;2023-04-08T11:14:52;102722.47;;;13.60;58.49
48630;BME280;34426;52.180;4.462;2023-04-08T11:17:20;102718.72;;;13.78;57.23
48630;BME280;34426;52.180;4.462;2023-04-08T11:19:48;102720.44;;;13.79;56.64
48630;BME280;34426;52.180;4.462;2023-04-08T11:22:15;102721.28;;;13.80;56.98
48630;BME280;34426;52.180;4.462;2023-04-08T11:24:46;102722.84;;;13.87;54.79
48630;BME280;34426;52.180;4.462;2023-04-08T11:27:14;102726.75;;;13.86;56.01
48630;BME280;34426;52.180;4.462;2023-04-08T11:29:44;102719.34;;;13.80;57.48
48630;BME280;34426;52.180;4.462;2023-04-08T11:32:12;102726.78;;;13.98;54.02
48630;BME280;34426;52.180;4.462;2023-04-08T11:34:39;102718.56;;;14.08;53.28
48630;BME280;34426;52.180;4.462;2023-04-08T11:37:07;102717.84;;;14.13;51.80
48630;BME280;34426;52.180;4.462;2023-04-08T11:39:38;102726.53;;;14.23;50.53
48630;BME280;34426;52.180;4.462;2023-04-08T11:42:08;102718.88;;;14.35;52.83
48630;BME280;34426;52.180;4.462;2023-04-08T11:44:36;102723.06;;;14.44;51.31
48630;BME280;34426;52.180;4.462;2023-04-08T11:47:04;102720.88;;;14.46;51.32
48630;BME280;34426;52.180;4.462;2023-04-08T11:49:44;102717.66;;;14.54;53.19
48630;BME280;34426;52.180;4.462;2023-04-08T11:52:10;102723.03;;;14.68;52.18
48630;BME280;34426;52.180;4.462;2023-04-08T11:54:40;102722.34;;;14.77;55.15
48630;BME280;34426;52.180;4.462;2023-04-08T11:57:07;102721.22;;;14.90;51.80
48630;BME280;34426;52.180;4.462;2023-04-08T11:59:33;102717.03;;;14.92;48.50
48630;BME280;34426;52.180;4.462;2023-04-08T12:01:58;102718.59;;;14.72;49.41
48630;BME280;34426;52.180;4.462;2023-04-08T12:04:24;102720.34;;;14.89;49.78
48630;BME280;34426;52.180;4.462;2023-04-08T12:06:50;102715.31;;;14.91;48.93
48630;BME280;34426;52.180;4.462;2023-04-08T12:09:15;102725.13;;;14.89;52.49
48630;BME280;34426;52.180;4.462;2023-04-08T12:11:43;102722.63;;;15.04;49.58
48630;BME280;34426;52.180;4.462;2023-04-08T12:14:10;102703.50;;;15.06;47.39
48630;BME280;34426;52.180;4.462;2023-04-08T12:16:36;102716.88;;;14.99;52.65
48630;BME280;34426;52.180;4.462;2023-04-08T12:19:01;102708.13;;;15.12;51.50
48630;BME280;34426;52.180;4.462;2023-04-08T12:21:27;102715.13;;;15.26;51.67
48630;BME280;34426;52.180;4.462;2023-04-08T12:23:52;102706.06;;;15.24;50.74
48630;BME280;34426;52.180;4.462;2023-04-08T12:26:20;102705.31;;;15.29;49.75
48630;BME280;34426;52.180;4.462;2023-04-08T12:28:48;102706.44;;;15.45;48.73
48630;BME280;34426;52.180;4.462;2023-04-08T12:31:17;102692.31;;;15.56;48.31
48630;BME280;34426;52.180;4.462;2023-04-08T12:33:44;102705.44;;;15.68;47.34
48630;BME280;34426;52.180;4.462;2023-04-08T12:36:12;102698.00;;;15.78;48.03
48630;BME280;34426;52.180;4.462;2023-04-08T12:38:39;102700.13;;;15.88;48.49
48630;BME280;34426;52.180;4.462;2023-04-08T12:44:10;102697.56;;;16.25;46.94
48630;BME280;34426;52.180;4.462;2023-04-08T12:46:39;102693.50;;;16.38;45.74
48630;BME280;34426;52.180;4.462;2023-04-08T12:49:06;102704.91;;;16.48;45.29
48630;BME280;34426;52.180;4.462;2023-04-08T12:51:34;102698.03;;;16.60;45.90
48630;BME280;34426;52.180;4.462;2023-04-08T12:54:01;102699.38;;;17.02;44.42
48630;BME280;34426;52.180;4.462;2023-04-08T12:56:34;102697.09;;;17.25;44.18
48630;BME280;34426;52.180;4.462;2023-04-08T12:59:02;102699.00;;;17.52;39.48
48630;BME280;34426;52.180;4.462;2023-04-08T13:01:32;102700.72;;;17.53;40.38
48630;BME280;34426;52.180;4.462;2023-04-08T13:04:01;102702.84;;;18.05;39.20
48630;BME280;34426;52.180;4.462;2023-04-08T13:06:29;102702.31;;;18.08;37.67
48630;BME280;34426;52.180;4.462;2023-04-08T13:08:56;102696.69;;;18.70;36.84
48630;BME280;34426;52.180;4.462;2023-04-08T13:11:24;102695.94;;;19.15;37.03